createdAt,value
2023-08-12T00:00:13.115Z,5.10
2023-08-12T00:02:45.570Z,5.20
2023-08-12T00:05:13.491Z,5.50
2023-08-12T00:07:42.473Z,5.50
2023-08-12T00:10:11.847Z,5.32
2023-08-12T00:12:39.557Z,5.28
2023-08-12T00:15:09.052Z,4.90
2023-08-12T00:17:38.611Z,5.50
2023-08-12T00:20:07.731Z,5.45
2023-08-12T00:22:34.926Z,5.32
2023-08-12T00:25:02.412Z,5.65
2023-08-12T00:27:29.571Z,5.45
2023-08-12T00:29:56.497Z,6.00
2023-08-12T00:32:23.656Z,7.00
2023-08-12T00:34:51.027Z,7.93
2023-08-12T00:37:18.307Z,8.70
2023-08-12T00:39:46.051Z,8.45
2023-08-12T00:42:13.164Z,9.48
2023-08-12T00:44:40.226Z,8.25
2023-08-12T00:47:07.907Z,8.48
2023-08-12T00:49:35.102Z,10.25
2023-08-12T00:52:02.358Z,10.32
2023-08-12T00:54:29.367Z,11.07
2023-08-12T00:56:56.443Z,11.88
2023-08-12T00:59:24.240Z,10.95
2023-08-12T01:01:51.381Z,11.85
2023-08-12T01:04:18.502Z,11.93
2023-08-12T01:06:46.463Z,11.40
2023-08-12T01:09:13.651Z,10.85
2023-08-12T01:11:46.930Z,10.93
2023-08-12T01:14:29.810Z,10.68
2023-08-12T01:17:01.253Z,10.65
2023-08-12T01:19:37.091Z,10.60
2023-08-12T01:22:05.410Z,10.27
2023-08-12T01:24:37.338Z,9.57
2023-08-12T01:27:05.744Z,10.18
2023-08-12T01:29:34.282Z,10.55
2023-08-12T01:32:12.576Z,10.30
2023-08-12T01:34:57.423Z,11.20
2023-08-12T01:37:30.307Z,10.13
2023-08-12T01:39:58.026Z,10.18
2023-08-12T01:42:25.598Z,10.50
2023-08-12T01:44:54.628Z,10.00
2023-08-12T01:47:21.530Z,10.70
2023-08-12T01:49:48.514Z,10.88
2023-08-12T01:52:15.432Z,10.70
2023-08-12T01:54:42.487Z,9.38
2023-08-12T01:57:10.486Z,9.80
2023-08-12T01:59:39.327Z,10.27
2023-08-12T02:02:06.404Z,11.27
2023-08-12T02:04:35.352Z,10.57
2023-08-12T02:07:02.191Z,11.70
2023-08-12T02:09:29.118Z,11.25
2023-08-12T02:11:56.059Z,12.05
2023-08-12T02:14:23.070Z,10.85
2023-08-12T02:16:50.093Z,10.88
2023-08-12T02:19:17.151Z,11.57
2023-08-12T02:21:44.286Z,11.93
2023-08-12T02:24:11.318Z,12.05
2023-08-12T02:26:39.323Z,12.52
2023-08-12T02:29:06.293Z,12.10
2023-08-12T02:31:33.941Z,10.45
2023-08-12T02:34:00.884Z,10.77
2023-08-12T02:36:28.060Z,11.32
2023-08-12T02:38:56.245Z,11.25
2023-08-12T02:41:23.229Z,9.88
2023-08-12T02:43:50.065Z,12.27
2023-08-12T02:46:17.324Z,11.20
2023-08-12T02:48:44.468Z,12.77
2023-08-12T02:51:11.438Z,13.13
2023-08-12T02:53:38.403Z,12.00
2023-08-12T02:56:05.417Z,10.18
2023-08-12T02:58:32.632Z,9.75
2023-08-12T03:00:59.698Z,9.27
2023-08-12T03:03:26.887Z,10.55
2023-08-12T03:05:53.862Z,9.77
2023-08-12T03:08:20.947Z,10.13
2023-08-12T03:10:49.213Z,10.40
2023-08-12T03:13:17.510Z,11.75
2023-08-12T03:15:44.563Z,12.05
2023-08-12T03:18:11.935Z,11.45
2023-08-12T03:20:40.298Z,10.77
2023-08-12T03:23:07.304Z,10.60
2023-08-12T03:25:34.149Z,10.02
2023-08-12T03:28:01.294Z,9.60
2023-08-12T03:30:28.601Z,10.05
2023-08-12T03:32:57.184Z,9.57
2023-08-12T03:35:27.061Z,8.90
2023-08-12T03:37:54.623Z,9.02
2023-08-12T03:40:22.522Z,8.98
2023-08-12T03:42:50.031Z,8.88
2023-08-12T03:45:20.024Z,9.27
2023-08-12T03:47:47.735Z,8.20
2023-08-12T03:50:14.766Z,7.47
2023-08-12T03:52:41.939Z,7.07
2023-08-12T03:55:09.293Z,6.80
2023-08-12T03:57:36.338Z,7.03
2023-08-12T04:00:04.251Z,7.15
2023-08-12T04:02:41.722Z,7.60
2023-08-12T04:05:08.962Z,6.88
2023-08-12T04:07:37.703Z,7.13
2023-08-12T04:10:05.114Z,6.50
2023-08-12T04:12:32.384Z,6.45
2023-08-12T04:14:59.424Z,6.32
2023-08-12T04:17:26.392Z,6.00
2023-08-12T04:19:53.969Z,5.75
2023-08-12T04:22:20.890Z,5.72
2023-08-12T04:24:47.930Z,5.55
2023-08-12T04:27:15.246Z,5.65
2023-08-12T04:29:42.416Z,5.60
2023-08-12T04:32:09.809Z,4.90
2023-08-12T04:34:37.055Z,4.88
2023-08-12T04:37:04.547Z,4.97
2023-08-12T04:39:33.598Z,5.00
2023-08-12T04:42:01.168Z,4.70
2023-08-12T04:44:28.198Z,4.47
2023-08-12T04:46:56.161Z,4.47
2023-08-12T04:49:24.744Z,4.78
2023-08-12T04:51:53.896Z,4.70
2023-08-12T04:54:21.532Z,5.07
2023-08-12T04:56:50.021Z,5.03
2023-08-12T04:59:17.096Z,5.00
2023-08-12T05:01:58.514Z,4.32
2023-08-12T05:04:31.916Z,4.65
2023-08-12T05:06:59.012Z,4.65
2023-08-12T05:09:26.332Z,4.57
2023-08-12T05:11:53.431Z,4.80
2023-08-12T05:14:20.480Z,4.35
2023-08-12T05:16:47.641Z,4.95
2023-08-12T05:19:14.683Z,4.22
2023-08-12T05:21:41.958Z,4.55
2023-08-12T05:24:09.358Z,4.28
2023-08-12T05:26:36.221Z,4.50
2023-08-12T05:29:03.389Z,4.10
2023-08-12T05:31:30.935Z,3.63
2023-08-12T05:33:58.127Z,3.42
2023-08-12T05:36:25.023Z,3.70
2023-08-12T05:38:51.968Z,3.42
2023-08-12T05:41:18.975Z,3.80
2023-08-12T05:43:45.996Z,3.53
2023-08-12T05:46:13.189Z,3.10
2023-08-12T05:48:40.235Z,3.60
2023-08-12T05:51:07.370Z,3.20
2023-08-12T05:53:34.652Z,3.20
2023-08-12T05:56:01.909Z,2.75
2023-08-12T05:58:28.799Z,3.67
2023-08-12T06:00:55.924Z,2.90
2023-08-12T06:03:22.922Z,3.00
2023-08-12T06:05:50.370Z,2.97
2023-08-12T06:08:17.373Z,2.60
2023-08-12T06:10:44.481Z,2.75
2023-08-12T06:13:11.486Z,2.50
2023-08-12T06:15:38.523Z,2.63
2023-08-12T06:18:06.053Z,2.47
2023-08-12T06:20:33.089Z,2.83
2023-08-12T06:23:00.177Z,2.28
2023-08-12T06:25:27.061Z,2.40
2023-08-12T06:27:54.205Z,2.80
2023-08-12T06:30:21.220Z,2.03
2023-08-12T06:32:48.202Z,2.08
2023-08-12T06:35:15.206Z,1.92
2023-08-12T06:37:42.925Z,2.25
2023-08-12T06:40:10.068Z,2.03
2023-08-12T06:42:37.176Z,2.20
2023-08-12T06:45:05.634Z,1.90
2023-08-12T06:47:32.790Z,2.00
2023-08-12T06:49:59.911Z,1.88
2023-08-12T06:52:26.815Z,1.50
2023-08-12T06:54:53.953Z,1.90
2023-08-12T06:57:20.856Z,1.85
2023-08-12T06:59:47.933Z,1.67
2023-08-12T07:02:15.088Z,1.67
2023-08-12T07:04:42.633Z,1.50
2023-08-12T07:07:09.480Z,1.70
2023-08-12T07:09:36.566Z,1.63
2023-08-12T07:12:04.114Z,1.42
2023-08-12T07:14:31.312Z,1.25
2023-08-12T07:16:58.268Z,1.58
2023-08-12T07:19:25.201Z,1.52
2023-08-12T07:21:52.355Z,1.60
2023-08-12T07:24:19.354Z,1.55
2023-08-12T07:26:46.398Z,2.13
2023-08-12T07:29:13.235Z,1.50
2023-08-12T07:31:40.265Z,1.45
2023-08-12T07:34:07.235Z,1.35
2023-08-12T07:36:34.554Z,1.50
2023-08-12T07:39:01.380Z,1.80
2023-08-12T07:41:29.403Z,1.30
2023-08-12T07:43:56.371Z,1.35
2023-08-12T07:46:23.579Z,1.45
2023-08-12T07:48:50.844Z,1.33
2023-08-12T07:51:17.822Z,1.50
2023-08-12T07:53:44.836Z,1.60
2023-08-12T07:56:11.838Z,1.70
2023-08-12T07:58:38.785Z,1.63
2023-08-12T08:01:06.300Z,1.60
2023-08-12T08:03:33.236Z,1.50
2023-08-12T08:06:00.253Z,1.55
2023-08-12T08:08:27.175Z,1.55
2023-08-12T08:10:54.131Z,1.58
2023-08-12T08:13:21.260Z,1.40
2023-08-12T08:15:48.216Z,1.63
2023-08-12T08:18:15.341Z,1.42
2023-08-12T08:20:46.269Z,1.70
2023-08-12T08:23:13.502Z,1.75
2023-08-12T08:25:40.799Z,1.55
2023-08-12T08:28:07.767Z,1.85
2023-08-12T08:30:34.655Z,1.45
2023-08-12T08:33:01.784Z,1.50
2023-08-12T08:35:28.920Z,1.67
2023-08-12T08:37:56.103Z,1.60
2023-08-12T08:40:23.046Z,1.90
2023-08-12T08:42:54.506Z,2.25
2023-08-12T08:45:26.703Z,1.48
2023-08-12T08:47:54.219Z,1.73
2023-08-12T08:50:21.992Z,1.50
2023-08-12T08:52:49.165Z,2.15
2023-08-12T08:55:16.437Z,1.60
2023-08-12T08:57:47.438Z,1.58
2023-08-12T09:02:54.370Z,1.70
2023-08-12T09:05:22.044Z,1.67
2023-08-12T09:07:50.485Z,1.60
2023-08-12T09:10:18.812Z,1.67
2023-08-12T09:12:47.939Z,1.55
2023-08-12T09:15:17.553Z,1.80
2023-08-12T09:17:44.718Z,1.52
2023-08-12T09:20:15.480Z,1.80
2023-08-12T09:22:42.710Z,1.92
2023-08-12T09:25:10.541Z,2.17
2023-08-12T09:27:41.414Z,1.63
2023-08-12T09:30:09.790Z,1.90
2023-08-12T09:32:37.164Z,1.80
2023-08-12T09:35:06.686Z,2.10
2023-08-12T09:37:33.637Z,1.70
2023-08-12T09:40:00.640Z,1.73
2023-08-12T09:42:29.364Z,2.60
2023-08-12T09:44:57.870Z,1.42
2023-08-12T09:47:28.302Z,1.67
2023-08-12T09:49:56.287Z,1.77
2023-08-12T09:52:23.343Z,1.70
2023-08-12T09:54:51.474Z,1.80
2023-08-12T09:57:19.443Z,1.50
2023-08-12T09:59:47.727Z,1.40
2023-08-12T10:02:19.881Z,1.80
2023-08-12T10:04:47.598Z,1.35
2023-08-12T10:07:15.354Z,1.65
2023-08-12T10:09:43.039Z,1.50
2023-08-12T10:12:10.798Z,1.85
2023-08-12T10:14:38.771Z,1.63
2023-08-12T10:17:06.841Z,1.40
2023-08-12T10:19:35.200Z,1.80
2023-08-12T10:22:04.914Z,2.30
2023-08-12T10:24:32.797Z,1.90
2023-08-12T10:26:59.713Z,1.90
2023-08-12T10:29:26.714Z,2.20
2023-08-12T10:31:54.770Z,1.60
2023-08-12T10:34:26.207Z,1.77
2023-08-12T10:39:30.045Z,1.95
2023-08-12T10:41:57.465Z,1.35
2023-08-12T10:44:29.903Z,1.90
2023-08-12T10:46:59.576Z,1.95
2023-08-12T10:49:26.606Z,2.00
2023-08-12T10:51:55.128Z,1.70
2023-08-12T10:54:33.171Z,1.85
2023-08-12T10:57:09.382Z,1.98
2023-08-12T10:59:58.331Z,1.70
2023-08-12T11:02:34.207Z,1.80
2023-08-12T11:05:08.285Z,2.13
2023-08-12T11:07:43.341Z,1.85
2023-08-12T11:10:23.488Z,1.83
2023-08-12T11:12:58.227Z,2.17
2023-08-12T11:15:38.187Z,1.80
2023-08-12T11:18:07.717Z,2.40
2023-08-12T11:20:35.423Z,1.80
2023-08-12T11:23:03.681Z,1.90
2023-08-12T11:25:31.484Z,2.10
2023-08-12T11:27:59.018Z,2.00
2023-08-12T11:30:26.188Z,1.90
2023-08-12T11:32:54.998Z,1.70
2023-08-12T11:35:23.810Z,1.77
2023-08-12T11:37:54.318Z,2.25
2023-08-12T11:40:21.465Z,1.97
2023-08-12T11:42:50.017Z,2.10
2023-08-12T11:45:19.641Z,2.13
2023-08-12T11:47:48.537Z,2.55
2023-08-12T11:50:15.586Z,2.22
2023-08-12T11:52:42.625Z,2.10
2023-08-12T11:55:10.582Z,1.95
2023-08-12T11:57:38.232Z,1.85
2023-08-12T12:00:16.798Z,2.10
2023-08-12T12:02:51.351Z,2.20
2023-08-12T12:05:24.285Z,2.10
2023-08-12T12:07:53.097Z,2.13
2023-08-12T12:10:34.534Z,1.70
2023-08-12T12:13:03.703Z,1.80
2023-08-12T12:15:32.226Z,2.30
2023-08-12T12:17:59.906Z,2.70
2023-08-12T12:20:28.490Z,2.75
2023-08-12T12:22:56.388Z,4.00
2023-08-12T12:25:24.333Z,2.30
2023-08-12T12:27:51.234Z,1.90
2023-08-12T12:30:18.571Z,2.17
2023-08-12T12:32:46.509Z,2.10
2023-08-12T12:35:13.943Z,1.65
2023-08-12T12:37:41.171Z,1.77
2023-08-12T12:40:08.747Z,3.40
2023-08-12T12:42:35.788Z,1.90
2023-08-12T12:45:03.485Z,2.10
2023-08-12T12:47:30.431Z,11.63
2023-08-12T12:49:57.543Z,3.65
2023-08-12T12:52:24.577Z,3.03
2023-08-12T12:54:51.526Z,2.05
2023-08-12T12:57:18.546Z,2.33
2023-08-12T12:59:45.490Z,1.60
2023-08-12T13:02:12.898Z,1.80
2023-08-12T13:04:39.974Z,1.80
2023-08-12T13:07:06.945Z,2.30
2023-08-12T13:09:33.830Z,1.60
2023-08-12T13:12:00.943Z,1.63
2023-08-12T13:14:30.080Z,1.85
2023-08-12T13:16:57.234Z,2.13
2023-08-12T13:19:24.234Z,1.95
2023-08-12T13:21:51.283Z,1.77
2023-08-12T13:24:18.175Z,1.52
2023-08-12T13:26:45.112Z,1.85
2023-08-12T13:29:12.164Z,2.33
2023-08-12T13:31:40.370Z,2.25
2023-08-12T13:34:07.439Z,1.90
2023-08-12T13:36:34.352Z,2.20
2023-08-12T13:39:01.603Z,1.90
2023-08-12T13:41:28.629Z,1.80
2023-08-12T13:43:55.661Z,1.83
2023-08-12T13:46:22.528Z,1.75
2023-08-12T13:48:49.596Z,1.60
2023-08-12T13:51:16.525Z,1.90
2023-08-12T13:53:43.577Z,1.60
2023-08-12T13:56:10.661Z,1.35
2023-08-12T13:58:37.623Z,1.58
2023-08-12T14:01:04.674Z,1.90
2023-08-12T14:03:31.929Z,1.50
2023-08-12T14:05:59.274Z,1.45
2023-08-12T14:08:26.424Z,1.73
2023-08-12T14:10:53.469Z,1.73
2023-08-12T14:13:20.377Z,1.42
2023-08-12T14:15:47.366Z,1.65
2023-08-12T14:18:14.358Z,1.67
2023-08-12T14:20:41.460Z,2.05
2023-08-12T14:23:09.874Z,1.45
2023-08-12T14:25:37.013Z,1.80
2023-08-12T14:28:04.364Z,1.67
2023-08-12T14:30:31.437Z,1.60
2023-08-12T14:32:58.696Z,1.83
2023-08-12T14:35:26.310Z,2.05
2023-08-12T14:37:53.265Z,1.70
2023-08-12T14:40:20.234Z,1.95
2023-08-12T14:42:47.698Z,1.90
2023-08-12T14:45:14.751Z,1.70
2023-08-12T14:47:41.816Z,2.55
2023-08-12T14:50:09.882Z,1.80
2023-08-12T14:52:36.984Z,1.70
2023-08-12T14:55:04.107Z,1.73
2023-08-12T14:57:31.265Z,1.55
2023-08-12T14:59:58.151Z,1.40
2023-08-12T15:02:25.284Z,1.73
2023-08-12T15:04:52.772Z,1.63
2023-08-12T15:07:20.132Z,1.90
2023-08-12T15:09:47.525Z,2.00
2023-08-12T15:12:14.388Z,2.17
2023-08-12T15:14:41.597Z,1.90
2023-08-12T15:17:08.620Z,2.15
2023-08-12T15:19:35.817Z,2.60
2023-08-12T15:22:02.726Z,2.45
2023-08-12T15:24:29.736Z,2.40
2023-08-12T15:26:56.676Z,2.10
2023-08-12T15:29:23.647Z,1.98
2023-08-12T15:31:51.282Z,2.30
2023-08-12T15:34:18.577Z,2.65
2023-08-12T15:36:45.744Z,2.45
2023-08-12T15:39:12.980Z,2.47
2023-08-12T15:41:43.268Z,2.40
2023-08-12T15:44:13.564Z,2.40
2023-08-12T15:46:41.171Z,2.60
2023-08-12T15:49:12.082Z,2.53
2023-08-12T15:51:40.419Z,2.33
2023-08-12T15:54:08.518Z,2.50
2023-08-12T15:56:38.165Z,2.70
2023-08-12T15:59:07.024Z,2.80
2023-08-12T16:01:34.882Z,2.53
2023-08-12T16:04:02.072Z,2.65
2023-08-12T16:06:29.716Z,2.58
2023-08-12T16:09:15.722Z,2.25
2023-08-12T16:11:43.850Z,2.30
2023-08-12T16:14:10.837Z,2.53
2023-08-12T16:16:37.772Z,2.30
2023-08-12T16:19:05.004Z,2.50
2023-08-12T16:21:32.727Z,2.80
2023-08-12T16:23:59.864Z,2.30
2023-08-12T16:26:26.891Z,2.30
2023-08-12T16:28:53.752Z,2.50
2023-08-12T16:31:21.024Z,2.33
2023-08-12T16:33:47.936Z,2.45
2023-08-12T16:36:15.000Z,2.50
2023-08-12T16:38:41.900Z,2.38
2023-08-12T16:41:08.913Z,3.20
2023-08-12T16:43:35.763Z,6.25
2023-08-12T16:46:02.914Z,4.45
2023-08-12T16:48:29.910Z,5.22
2023-08-12T16:50:56.980Z,4.63
2023-08-12T16:53:24.044Z,5.78
2023-08-12T16:55:50.946Z,3.00
2023-08-12T16:58:18.391Z,3.40
2023-08-12T17:00:46.740Z,2.78
2023-08-12T17:03:14.087Z,2.55
2023-08-12T17:05:41.030Z,2.72
2023-08-12T17:08:09.341Z,2.90
2023-08-12T17:10:40.254Z,6.32
2023-08-12T17:13:07.276Z,4.50
2023-08-12T17:15:34.448Z,3.30
2023-08-12T17:18:01.454Z,2.65
2023-08-12T17:20:28.689Z,3.20
2023-08-12T17:22:55.659Z,6.53
2023-08-12T17:25:22.670Z,9.00
2023-08-12T17:27:51.736Z,7.68
2023-08-12T17:30:22.173Z,7.63
2023-08-12T17:32:49.450Z,5.30
2023-08-12T17:35:16.573Z,4.70
2023-08-12T17:37:44.231Z,2.83
2023-08-12T17:40:12.302Z,2.47
2023-08-12T17:42:39.286Z,2.63
2023-08-12T17:45:07.329Z,2.80
2023-08-12T17:47:34.488Z,2.42
2023-08-12T17:50:01.425Z,2.70
2023-08-12T17:52:28.495Z,2.72
2023-08-12T17:54:55.446Z,2.85
2023-08-12T17:57:22.447Z,3.05
2023-08-12T17:59:49.421Z,4.03
2023-08-12T18:02:16.646Z,3.88
2023-08-12T18:04:43.788Z,3.40
2023-08-12T18:07:10.850Z,2.90
2023-08-12T18:09:37.811Z,2.92
2023-08-12T18:12:04.904Z,3.33
2023-08-12T18:14:31.898Z,3.58
2023-08-12T18:16:59.112Z,3.47
2023-08-12T18:19:26.106Z,3.17
2023-08-12T18:21:53.047Z,3.65
2023-08-12T18:24:20.166Z,3.42
2023-08-12T18:26:47.028Z,3.20
2023-08-12T18:29:14.142Z,3.55
2023-08-12T18:31:41.066Z,3.20
2023-08-12T18:34:08.048Z,3.40
2023-08-12T18:36:35.142Z,3.72
2023-08-12T18:39:02.171Z,5.65
2023-08-12T18:41:29.079Z,8.82
2023-08-12T18:43:56.187Z,9.45
2023-08-12T18:46:23.325Z,6.75
2023-08-12T18:48:50.441Z,4.43
2023-08-12T18:51:17.747Z,4.78
2023-08-12T18:53:44.710Z,4.50
2023-08-12T18:56:11.657Z,5.10
2023-08-12T18:58:38.607Z,4.88
2023-08-12T19:01:05.685Z,6.20
2023-08-12T19:03:32.733Z,7.10
2023-08-12T19:06:01.157Z,7.60
2023-08-12T19:08:28.187Z,11.52
2023-08-12T19:10:59.052Z,8.98
2023-08-12T19:13:26.701Z,7.63
2023-08-12T19:15:55.678Z,8.05
2023-08-12T19:18:26.996Z,7.75
2023-08-12T19:20:54.095Z,7.20
2023-08-12T19:23:21.607Z,10.25
2023-08-12T19:25:49.491Z,5.90
2023-08-12T19:28:16.831Z,5.75
2023-08-12T19:30:49.813Z,6.53
2023-08-12T19:33:18.862Z,6.07
2023-08-12T19:35:46.371Z,5.80
2023-08-12T19:38:14.361Z,5.55
2023-08-12T19:40:41.426Z,5.13
2023-08-12T19:43:08.646Z,5.28
2023-08-12T19:45:35.753Z,5.55
2023-08-12T19:48:02.932Z,6.53
2023-08-12T19:50:31.309Z,5.55
2023-08-12T19:52:58.420Z,5.97
2023-08-12T19:55:25.964Z,5.70
2023-08-12T19:57:52.802Z,6.25
2023-08-12T20:00:19.838Z,5.53
2023-08-12T20:02:47.440Z,6.00
2023-08-12T20:05:19.221Z,5.78
2023-08-12T20:07:48.286Z,6.03
2023-08-12T20:10:17.249Z,6.60
2023-08-12T20:12:45.311Z,6.45
2023-08-12T20:15:12.627Z,6.82
2023-08-12T20:17:40.974Z,6.05
2023-08-12T20:20:13.463Z,6.18
2023-08-12T20:23:04.509Z,5.68
2023-08-12T20:25:37.986Z,5.95
2023-08-12T20:28:07.065Z,6.03
2023-08-12T20:30:34.978Z,5.35
2023-08-12T20:33:05.080Z,5.55
2023-08-12T20:35:34.955Z,5.88
2023-08-12T20:38:04.191Z,5.40
2023-08-12T20:40:33.010Z,5.10
2023-08-12T20:43:02.014Z,4.88
2023-08-12T20:45:29.249Z,5.28
2023-08-12T20:47:56.317Z,5.00
2023-08-12T20:50:23.254Z,5.22
2023-08-12T20:52:50.383Z,5.22
2023-08-12T20:55:17.323Z,5.32
2023-08-12T20:57:44.413Z,6.50
2023-08-12T21:00:17.378Z,6.38
2023-08-12T21:02:46.510Z,6.50
2023-08-12T21:05:14.739Z,6.47
2023-08-12T21:07:42.282Z,6.30
2023-08-12T21:10:10.775Z,5.50
2023-08-12T21:12:38.384Z,6.10
2023-08-12T21:15:06.049Z,6.40
2023-08-12T21:17:33.293Z,5.45
2023-08-12T21:20:00.297Z,5.85
2023-08-12T21:22:27.411Z,5.28
2023-08-12T21:24:54.500Z,5.35
2023-08-12T21:27:22.329Z,5.63
2023-08-12T21:29:49.197Z,5.20
2023-08-12T21:32:16.957Z,5.68
2023-08-12T21:34:44.026Z,6.05
2023-08-12T21:37:12.134Z,5.45
2023-08-12T21:39:39.085Z,5.55
2023-08-12T21:42:06.409Z,5.35
2023-08-12T21:44:33.364Z,5.90
2023-08-12T21:47:00.809Z,5.40
2023-08-12T21:49:27.948Z,5.25
2023-08-12T21:51:55.676Z,5.13
2023-08-12T21:54:22.715Z,5.40
2023-08-12T21:56:49.855Z,5.25
2023-08-12T21:59:16.955Z,4.88
2023-08-12T22:01:45.010Z,5.20
2023-08-12T22:04:12.163Z,4.97
2023-08-12T22:06:39.122Z,5.10
2023-08-12T22:09:06.117Z,5.18
2023-08-12T22:11:33.010Z,4.88
2023-08-12T22:14:00.083Z,4.93
2023-08-12T22:16:27.033Z,5.50
2023-08-12T22:18:54.038Z,5.57
2023-08-12T22:21:21.901Z,5.50
2023-08-12T22:23:48.780Z,5.03
2023-08-12T22:26:15.760Z,5.00
2023-08-12T22:28:42.614Z,5.63
2023-08-12T22:31:09.745Z,5.82
2023-08-12T22:33:36.757Z,4.88
2023-08-12T22:36:04.532Z,5.85
2023-08-12T22:38:31.446Z,5.40
2023-08-12T22:40:58.539Z,5.28
2023-08-12T22:43:25.599Z,5.80
2023-08-12T22:45:52.611Z,6.63
2023-08-12T22:48:20.342Z,6.00
2023-08-12T22:50:47.501Z,5.82
2023-08-12T22:53:14.742Z,6.25
2023-08-12T22:55:41.860Z,5.70
2023-08-12T22:58:08.937Z,5.35
2023-08-12T23:00:36.282Z,6.35
2023-08-12T23:03:04.209Z,9.05
2023-08-12T23:05:31.401Z,10.38
2023-08-12T23:07:58.298Z,5.72
2023-08-12T23:10:25.103Z,5.43
2023-08-12T23:12:52.274Z,4.75
2023-08-12T23:15:19.238Z,5.22
2023-08-12T23:17:46.332Z,5.38
2023-08-12T23:20:13.224Z,5.40
2023-08-12T23:22:40.205Z,5.45
2023-08-12T23:25:08.604Z,5.00
2023-08-12T23:27:36.850Z,4.93
2023-08-12T23:30:04.322Z,4.65
2023-08-12T23:32:31.597Z,5.18
2023-08-12T23:34:58.648Z,4.68
2023-08-12T23:37:25.519Z,5.50
2023-08-12T23:39:52.658Z,5.30
2023-08-12T23:42:19.495Z,5.90
2023-08-12T23:44:46.620Z,5.22
2023-08-12T23:47:13.477Z,5.03
2023-08-12T23:49:40.408Z,5.13
2023-08-12T23:52:08.170Z,4.97
2023-08-12T23:54:35.201Z,4.65
2023-08-12T23:57:04.208Z,4.60
2023-08-12T23:59:31.039Z,3.90
